메인 페이지
METAR-TAF:

METAR-TAF

공항 :

벨렝, 파라, 브라질

위도: 01-23S, 경도: 048-29W, 고도: 16m

현재 날씨관측

예보는 1 시간 9분 전, 07:00시(UTC)에 발표되었습니다.
4kt
온도 24°C
습도 89%
기압 1014 hPa
시정 10km 이상
고도 1300ft 상공 구름 조금
고도 3000ft 상공 구름 많음
약한비

METAR: SBBE 150700Z 10004KT 9999 -RA FEW013 BKN030 24/22 Q1014

시각: 05:09 (08:09 UTC)

예보

예보는 4 시간 9분 전, 04:00시(UTC)에 발표되었습니다.
예보 대상 시간: 15일 06시부터 16일 06시까지 (UTC)
동남동5kt
시정 10km 이상
고도 3000ft 상공 구름 조금
전환 중
15일 11시부터 15일 13시까지 (UTC)
8kt
고도 1500ft 상공 구름 많음
전환 중
15일 15시부터 15일 17시까지 (UTC)
10kt
시정: 3000m
고도 2500ft 상공 구름 보통
고도 3000ft 상공 구름 조금, 타워링 적운.
고도 1000ft 상공 구름 보통
고도 2000ft 상공 구름 많음
고도 2500ft 상공 구름 조금, 적란운.
뇌우, 비
전환 중
15일 22시부터 15일 24시까지 (UTC)
동북동5kt

TAF: SBBE 150400Z 1506/1606 12005KT 9999 FEW030 TN24/1507Z TX30/1515Z BECMG 1511/1513 09008KT BKN015 BECMG 1515/1517 36010KT SCT025 FEW030TCU TE MPO 1517/1520 3000 TSRA SCT010 BKN020 FEW025CB BECMG 1522/1524 07005KT F EW025 RMK PCQ

4,000개 이상의 공항 관측 자료 및 예보 (METAR 및 TAF 보고).

지도상에서 검색 가능한 기상관측소가 노란 점과 빨간 점으로 표시되어 있습니다.

기상관측소 명을 보려면 표시 위로 마우스를 이동하세요.

날씨 관측과 예보를 보려면 클릭하세요.

지도 변경 : 확대하려면 엑스 표시가 있는 녹색 버튼, 축소하려면 빼기 표시가 있는 녹색 버튼, 다음 페이지의 지도를 보려면 녹색 화살표를 클릭하세요.


METAR-TAF: